Country
Station

 

Weather  for  Glasgow, Glasgow International Airport  -  United States    United States

  
-2 °C (28 °F)
    
 
 

Current METAR for Glasgow, Glasgow International Airport is :

KGGW 221353Z AUTO 11005KT 10SM CLR M02/M04 A2980 RMK AO2 SLP129 T10171044

 

This is a report for Glasgow, Glasgow International Airport - United States.
 
The report was made 51 minutes ago, at 13:53 UTC .
The wind was blowing at a speed of 2.6 meters per second (5.8 miles per hour) from east/southeast (110°).
 
The temperature was -2 °C (28 °F), with a dew-point at -4 °C (25 °F).
The temperature felt like -6 °C (22 °F).
 
The atmospheric pressure was 1009 hPa (29.80 inHg).
The relative humidity was 86.1%.
 
The sky was clear.
 
The overall visibility was 16.1 kilometers (10.0 miles).
 

 
 
 
 

Country :   A   B   C   D   E   F   G   H   I   J   K   L   M   N   O   P   Q   R   S   T   U   V   W   Y   Z

 

Site Info  |  Disclaimer  |  Credits  |  Privacy
Contact us  |  Add to favorites
© 2013-2017 METARs - All rights reserved